Redgranite, Wisconsin
Current Conditions -  °F | °C
As of 1:56 PM on Friday 28 Nov 2014 (Local Time) from KY50 Reporting Station
Overcast Overcast  
Wind Chill: 15°   Ceiling: 2300
Heat Index: 25°   Visibility: 10mi
Dew Point: 17°   Wind: 10mph
Humidity: 71%   Direction: 160°SSE
Pressure: 29.97"   Gusts: NA
Location:  44.04°N, 89.1°W
Report Text: KY50 281956Z AUTO 16009KT 10SM OVC023 M04/M08 A2997 RMK AO2 TSNO T10381083 SLP161
Loading
Personal Weather Stations






























Interactive Weather Map New forecast layout! Learn more

10-Day Weather Forecast

Advertisements
Track Severe Weather on mobile